Georgetown, Colorado
Current Conditions -  °F | °C
As of 4:55 PM on Saturday 22 Nov 2014 (Local Time) from K0CO Reporting Station
Heavy Snow Heavy Snow  
Wind Chill:   Ceiling: 100
Heat Index: 18°   Visibility: 0mi
Dew Point: 12°   Wind: 22mph
Humidity: 79%   Direction: 300°WNW
Pressure: 29.85"   Gusts: 28mph
Location:  39.71°N, 105.7°W
Report Text: K0CO 222355Z AUTO 30019G24KT M1/4SM +SN OVC001 M08/M11 A2985 RMK AO2
Loading
Personal Weather Stations






























Interactive Weather Map New forecast layout! Learn more

10-Day Weather Forecast

Advertisements
Track Severe Weather on mobile